Time;durP1;ratioP1;P1;durP2;ratioP2;P2;SDS_P1;SDS_P2;PMS_P1;PMS_P2;Temp;Humidity;BMP_temperature;BMP_pressure;BME280_temperature;BME280_humidity;BME280_pressure;Samples;Min_cycle;Max_cycle;Signal;HPM_P1;HPM_P2
2022/09/29 00:02:09;;;;;;;0.57;0.57;;;;;;;21.48;47.99;94194.00;5050790;28;20443;-63
2022/09/29 00:04:36;;;;;;;0.10;0.10;;;;;;;22.06;47.26;94203.97;5050891;28;20439;-66
2022/09/29 00:07:03;;;;;;;0.50;0.50;;;;;;;22.19;47.56;94200.06;5036863;28;20439;-63
2022/09/29 00:09:31;;;;;;;0.43;0.43;;;;;;;22.10;46.58;94205.56;5050956;28;20496;-65
2022/09/29 00:11:57;;;;;;;0.30;0.30;;;;;;;21.90;47.60;94213.81;5050612;28;20546;-63
2022/09/29 00:14:24;;;;;;;0.30;0.30;;;;;;;21.52;48.00;94219.63;5044113;28;20522;-64
2022/09/29 00:16:52;;;;;;;1.30;0.63;;;;;;;21.87;47.31;94206.50;5042263;28;20550;-63
2022/09/29 00:19:19;;;;;;;1.07;0.97;;;;;;;22.15;46.88;94193.88;5050332;28;20439;-61
2022/09/29 00:21:46;;;;;;;0.50;0.50;;;;;;;22.26;47.08;94200.25;5049392;28;20509;-67
2022/09/29 00:24:13;;;;;;;0.20;0.20;;;;;;;22.27;47.18;94201.78;5036050;28;20534;-64
2022/09/29 00:26:39;;;;;;;0.23;0.23;;;;;;;21.93;46.38;94189.13;5050288;28;20870;-66
2022/09/29 00:29:09;;;;;;;0.17;0.17;;;;;;;22.19;45.92;94208.06;5035335;28;20444;-67
2022/09/29 00:31:35;;;;;;;0.13;0.13;;;;;;;22.11;45.98;94222.38;5039505;28;20466;-65
2022/09/29 00:34:03;;;;;;;0.57;0.57;;;;;;;21.94;46.46;94214.69;5036074;28;21323;-66
2022/09/29 00:36:29;;;;;;;0.43;0.43;;;;;;;22.03;46.82;94201.94;5043169;28;20527;-66
2022/09/29 00:38:57;;;;;;;0.23;0.23;;;;;;;22.08;46.68;94175.78;5043089;28;20447;-65
2022/09/29 00:41:30;;;;;;;1.00;1.00;;;;;;;22.03;47.22;94185.94;5030618;28;20582;-65
2022/09/29 00:44:02;;;;;;;0.20;0.20;;;;;;;21.94;47.27;94196.78;5047100;28;20479;-63
2022/09/29 00:46:51;;;;;;;0.37;0.37;;;;;;;20.73;49.82;94190.31;5050276;28;20521;-65
2022/09/29 00:49:21;;;;;;;0.47;0.47;;;;;;;20.94;49.92;94197.03;5049683;28;21036;-68
2022/09/29 00:52:09;;;;;;;10.53;1.43;;;;;;;21.79;48.03;94189.53;5033336;28;20451;-64
2022/09/29 00:54:44;;;;;;;0.00;0.00;;;;;;;21.98;48.18;94204.88;5041447;28;20443;-64
2022/09/29 00:57:15;;;;;;;0.67;0.40;;;;;;;21.67;48.32;94202.91;5035682;28;20434;-65
2022/09/29 00:59:48;;;;;;;0.27;0.27;;;;;;;21.31;49.52;94212.94;5049917;28;20467;-64
2022/09/29 01:02:17;;;;;;;0.20;0.20;;;;;;;21.72;48.24;94192.00;5048970;28;20439;-66
2022/09/29 01:04:46;;;;;;;0.70;0.70;;;;;;;22.10;47.59;94191.44;5038196;28;20945;-64
2022/09/29 01:07:14;;;;;;;0.20;0.20;;;;;;;21.98;47.41;94186.22;5046643;28;20520;-66
2022/09/29 01:09:42;;;;;;;0.67;0.67;;;;;;;21.23;49.51;94184.53;5039818;28;20442;-64
2022/09/29 01:12:09;;;;;;;0.00;0.00;;;;;;;21.67;48.13;94172.81;5045364;28;20561;-65
2022/09/29 01:14:37;;;;;;;0.30;0.30;;;;;;;22.00;47.62;94181.31;5041103;28;20440;-65
2022/09/29 01:17:05;;;;;;;0.10;0.10;;;;;;;20.75;51.06;94196.84;5043543;28;20542;-66
2022/09/29 01:19:34;;;;;;;0.40;0.40;;;;;;;21.15;49.85;94195.00;5036231;28;20443;-65
2022/09/29 01:22:36;;;;;;;0.37;0.37;;;;;;;21.61;48.67;94190.16;5049476;28;20921;-64
2022/09/29 01:25:47;;;;;;;0.20;0.20;;;;;;;21.67;48.69;94199.47;5040360;28;20753;-64
2022/09/29 01:28:23;;;;;;;0.27;0.27;;;;;;;21.89;48.16;94190.94;5048662;28;20449;-65
2022/09/29 01:31:15;;;;;;;0.43;0.43;;;;;;;22.00;47.77;94186.66;5047353;28;20439;-64
2022/09/29 01:34:05;;;;;;;0.10;0.10;;;;;;;21.96;47.51;94201.78;5029189;28;20443;-64
2022/09/29 01:36:49;;;;;;;0.27;0.27;;;;;;;21.99;47.27;94195.75;5029917;28;20447;-64
2022/09/29 01:39:24;;;;;;;0.10;0.10;;;;;;;22.04;47.26;94198.19;5044290;28;20501;-63
2022/09/29 01:42:21;;;;;;;0.53;0.50;;;;;;;21.86;47.04;94197.72;5034841;28;20481;-65
2022/09/29 01:44:50;;;;;;;0.27;0.27;;;;;;;21.79;47.85;94202.09;5049027;28;20478;-65
2022/09/29 01:47:23;;;;;;;0.33;0.33;;;;;;;21.65;47.01;94159.03;5032500;28;20436;-63
2022/09/29 01:49:58;;;;;;;0.37;0.37;;;;;;;21.76;47.54;94218.75;5039964;28;20969;-65
2022/09/29 01:52:32;;;;;;;0.20;0.20;;;;;;;21.53;48.19;94217.75;5036698;28;20438;-64
2022/09/29 01:55:09;;;;;;;0.20;0.20;;;;;;;21.70;47.59;94214.78;5034729;28;21196;-66
2022/09/29 01:57:51;;;;;;;0.40;0.27;;;;;;;21.83;47.48;94224.31;5048774;28;20442;-63
2022/09/29 02:00:19;;;;;;;0.40;0.40;;;;;;;21.85;47.67;94227.41;5034044;28;20463;-64
2022/09/29 02:02:55;;;;;;;0.20;0.20;;;;;;;21.74;48.05;94219.09;5049087;28;20435;-64
2022/09/29 02:05:26;;;;;;;0.30;0.30;;;;;;;21.71;48.33;94213.66;5034652;28;20443;-64
2022/09/29 02:07:57;;;;;;;0.00;0.00;;;;;;;21.83;48.26;94218.97;5048642;28;20446;-63
2022/09/29 02:10:29;;;;;;;0.10;0.10;;;;;;;22.07;48.05;94224.16;5034495;28;20486;-66
2022/09/29 02:12:59;;;;;;;2.03;0.97;;;;;;;22.11;47.43;94219.69;5040126;28;20435;-65
2022/09/29 02:15:31;;;;;;;0.73;0.73;;;;;;;22.03;47.83;94212.63;5028949;28;20506;-65
2022/09/29 02:18:02;;;;;;;4.07;0.77;;;;;;;22.19;47.67;94216.06;5027772;28;21033;-66
2022/09/29 02:20:29;;;;;;;0.30;0.27;;;;;;;21.74;48.52;94210.31;5042505;28;20808;-64
2022/09/29 02:22:56;;;;;;;1.13;1.03;;;;;;;21.78;48.89;94233.31;5035428;28;20526;-63
2022/09/29 02:25:24;;;;;;;0.10;0.10;;;;;;;21.70;48.66;94226.22;5048511;28;20435;-64
2022/09/29 02:27:51;;;;;;;0.87;0.73;;;;;;;21.76;48.31;94221.41;5034125;28;20474;-63
2022/09/29 02:30:18;;;;;;;0.77;0.77;;;;;;;21.52;48.54;94226.84;5037229;28;20435;-63
2022/09/29 02:32:46;;;;;;;0.40;0.40;;;;;;;21.53;48.17;94226.50;5032348;28;20620;-65
2022/09/29 02:35:14;;;;;;;3.07;1.47;;;;;;;21.66;48.35;94236.00;5048823;28;20474;-65
2022/09/29 02:38:04;;;;;;;0.40;0.40;;;;;;;21.60;48.30;94241.94;5033913;28;20451;-66
2022/09/29 02:40:57;;;;;;;0.80;0.80;;;;;;;21.53;48.35;94244.41;5045637;28;20491;-63
2022/09/29 02:43:50;;;;;;;0.47;0.47;;;;;;;21.50;47.32;94237.06;5031877;28;20472;-63
2022/09/29 02:46:39;;;;;;;0.27;0.27;;;;;;;21.51;47.85;94235.97;5042228;28;20439;-66
2022/09/29 02:49:12;;;;;;;0.13;0.13;;;;;;;21.50;48.03;94224.53;5053115;28;20445;-65
2022/09/29 02:51:42;;;;;;;1.87;0.90;;;;;;;21.40;48.43;94226.91;5037817;28;20447;-63
2022/09/29 02:54:20;;;;;;;0.27;0.27;;;;;;;21.31;47.67;94228.94;5052139;28;20525;-65
2022/09/29 02:57:19;;;;;;;0.40;0.40;;;;;;;20.61;49.40;94223.03;5037891;28;20451;-63
2022/09/29 03:00:10;;;;;;;0.67;0.67;;;;;;;20.90;49.08;94245.97;5039542;28;20478;-64
2022/09/29 03:02:39;;;;;;;0.20;0.20;;;;;;;20.89;49.25;94239.88;5039383;28;20474;-63
2022/09/29 03:05:12;;;;;;;0.20;0.20;;;;;;;20.68;49.37;94238.44;5052040;28;20803;-63
2022/09/29 03:07:40;;;;;;;1.03;0.93;;;;;;;20.54;50.00;94225.50;5051973;28;20442;-64
2022/09/29 03:10:10;;;;;;;0.47;0.47;;;;;;;20.70;49.70;94210.38;5051661;28;20447;-64
2022/09/29 03:12:37;;;;;;;0.27;0.27;;;;;;;20.83;49.27;94181.84;5037604;28;21015;-67
2022/09/29 03:15:06;;;;;;;0.20;0.20;;;;;;;20.58;49.35;94181.13;5039618;28;20530;-65
2022/09/29 03:17:33;;;;;;;0.20;0.20;;;;;;;20.67;48.42;94192.44;5031844;28;20913;-62
2022/09/29 03:20:00;;;;;;;0.63;0.50;;;;;;;20.73;48.05;94198.31;5042234;28;20527;-64
2022/09/29 03:22:27;;;;;;;0.63;0.63;;;;;;;20.91;47.74;94195.03;5037049;28;20495;-64
2022/09/29 03:24:54;;;;;;;0.10;0.10;;;;;;;21.00;47.48;94194.94;5042423;28;20459;-63
2022/09/29 03:27:21;;;;;;;0.20;0.20;;;;;;;20.65;48.03;94207.97;5031082;28;20448;-63
2022/09/29 03:29:49;;;;;;;0.20;0.20;;;;;;;20.51;48.19;94226.13;5031551;28;20495;-64
2022/09/29 03:32:16;;;;;;;1.10;0.73;;;;;;;20.68;47.89;94231.25;5031662;28;20448;-64
2022/09/29 03:34:43;;;;;;;0.00;0.00;;;;;;;20.47;48.67;94243.91;5045554;28;20487;-64
2022/09/29 03:37:11;;;;;;;0.20;0.20;;;;;;;21.04;47.66;94225.91;5031554;28;20480;-66
2022/09/29 03:39:38;;;;;;;0.20;0.20;;;;;;;20.94;47.98;94220.22;5044853;28;20558;-65
2022/09/29 03:42:05;;;;;;;0.30;0.30;;;;;;;21.09;47.91;94216.91;5031485;28;20922;-65
2022/09/29 03:44:32;;;;;;;0.37;0.37;;;;;;;20.98;47.82;94232.53;5038851;28;20661;-65
2022/09/29 03:46:59;;;;;;;0.77;0.77;;;;;;;20.71;48.77;94238.56;5050340;28;20512;-66
2022/09/29 03:49:26;;;;;;;0.10;0.10;;;;;;;20.78;48.67;94249.41;5037655;28;20850;-65
2022/09/29 03:51:53;;;;;;;0.80;0.50;;;;;;;20.45;49.23;94261.31;5044490;28;20447;-65
2022/09/29 03:54:20;;;;;;;0.30;0.30;;;;;;;20.72;48.77;94250.78;5051078;28;20851;-66
2022/09/29 03:56:46;;;;;;;0.60;0.57;;;;;;;20.37;49.67;94254.97;5050867;28;20956;-65
2022/09/29 03:59:14;;;;;;;0.83;0.83;;;;;;;20.57;49.10;94245.31;5050115;28;20512;-65
2022/09/29 04:01:41;;;;;;;0.37;0.37;;;;;;;20.23;48.99;94243.88;5035130;28;20475;-64
2022/09/29 04:04:09;;;;;;;0.20;0.20;;;;;;;20.31;48.54;94244.88;5029684;28;20986;-66
2022/09/29 04:06:36;;;;;;;2.43;0.87;;;;;;;20.26;48.93;94243.22;5029505;28;20483;-65
2022/09/29 04:09:03;;;;;;;0.63;0.53;;;;;;;20.53;48.21;94237.22;5030521;28;20436;-65
2022/09/29 04:11:30;;;;;;;1.67;1.03;;;;;;;20.36;48.28;94252.66;5044919;28;20478;-64
2022/09/29 04:13:57;;;;;;;1.93;0.67;;;;;;;19.73;49.85;94251.25;5050862;28;20446;-65
2022/09/29 04:16:23;;;;;;;0.43;0.30;;;;;;;20.09;49.06;94249.47;5037537;28;20436;-63
2022/09/29 04:18:50;;;;;;;0.40;0.40;;;;;;;20.31;48.63;94245.66;5044210;28;21095;-62
2022/09/29 04:21:17;;;;;;;0.37;0.37;;;;;;;20.18;48.65;94247.53;5042014;28;20479;-66
2022/09/29 04:23:45;;;;;;;0.20;0.20;;;;;;;19.75;49.45;94243.72;5033504;28;21076;-64
2022/09/29 04:26:12;;;;;;;0.33;0.33;;;;;;;19.85;49.70;94246.00;5050480;28;20465;-64
2022/09/29 04:28:39;;;;;;;0.50;0.50;;;;;;;19.94;49.70;94252.00;5050213;28;20870;-66
2022/09/29 04:31:07;;;;;;;0.10;0.10;;;;;;;19.71;49.06;94245.47;5050331;28;20805;-66
2022/09/29 04:33:34;;;;;;;0.93;0.53;;;;;;;19.43;49.95;94241.84;5050569;28;20490;-67
2022/09/29 04:36:01;;;;;;;0.23;0.23;;;;;;;19.44;50.81;94232.75;5050322;28;20881;-67
2022/09/29 04:38:28;;;;;;;0.67;0.67;;;;;;;19.05;50.80;94248.03;5039213;28;20523;-66
2022/09/29 04:40:56;;;;;;;1.83;0.87;;;;;;;18.89;50.79;94265.66;5041264;28;20440;-65
2022/09/29 04:43:23;;;;;;;0.27;0.27;;;;;;;18.16;52.83;94274.06;5034989;28;20447;-64
2022/09/29 04:45:49;;;;;;;0.10;0.10;;;;;;;18.65;51.83;94252.19;5034544;28;20501;-64
2022/09/29 04:48:16;;;;;;;0.07;0.07;;;;;;;19.45;50.21;94250.28;5048406;28;20443;-66
2022/09/29 04:50:43;;;;;;;1.57;0.40;;;;;;;19.52;49.32;94239.91;5034430;28;20879;-66
2022/09/29 04:53:10;;;;;;;0.40;0.40;;;;;;;19.65;48.99;94230.88;5043277;28;20908;-62
2022/09/29 04:55:38;;;;;;;0.40;0.40;;;;;;;19.41;49.17;94249.38;5027568;28;20751;-70
2022/09/29 04:58:05;;;;;;;1.40;1.23;;;;;;;19.60;48.91;94242.47;5032721;28;20847;-64
2022/09/29 05:00:32;;;;;;;1.63;1.53;;;;;;;19.71;48.72;94245.47;5048027;28;20998;-64
2022/09/29 05:02:59;;;;;;;1.70;1.60;;;;;;;19.76;48.65;94251.38;5034438;28;20613;-65
2022/09/29 05:05:26;;;;;;;2.57;1.40;;;;;;;19.37;49.52;94243.16;5036279;28;20448;-67
2022/09/29 05:07:53;;;;;;;0.00;0.00;;;;;;;19.75;48.87;94233.09;5049771;28;20442;-68
2022/09/29 05:10:20;;;;;;;0.13;0.13;;;;;;;20.14;48.21;94235.19;5033346;28;21013;-67
2022/09/29 05:12:49;;;;;;;0.57;0.37;;;;;;;19.89;48.48;94223.72;5036629;28;20450;-67
2022/09/29 05:15:19;;;;;;;0.10;0.10;;;;;;;20.07;48.39;94224.31;5049170;28;20479;-69
2022/09/29 05:17:51;;;;;;;0.50;0.50;;;;;;;19.99;47.99;94222.53;5036630;28;20458;-65
2022/09/29 05:20:18;;;;;;;0.10;0.10;;;;;;;20.01;48.02;94217.66;5049390;28;20482;-66
2022/09/29 05:22:45;;;;;;;4.63;4.23;;;;;;;20.53;47.06;94239.91;5030175;28;20538;-62
2022/09/29 05:25:12;;;;;;;3.07;2.60;;;;;;;20.70;46.83;94253.00;5041102;28;20482;-62
2022/09/29 05:27:38;;;;;;;1.40;1.33;;;;;;;20.36;47.66;94249.97;5045935;28;20448;-64
2022/09/29 05:30:06;;;;;;;0.20;0.20;;;;;;;20.41;47.59;94228.47;5029412;28;20789;-65
2022/09/29 05:32:32;;;;;;;0.10;0.10;;;;;;;20.11;49.48;94235.84;5045575;28;20439;-63
2022/09/29 05:34:59;;;;;;;0.83;0.83;;;;;;;20.35;49.10;94240.44;5041515;28;20527;-63
2022/09/29 05:37:26;;;;;;;0.20;0.20;;;;;;;20.70;48.23;94237.00;5043764;28;20545;-63
2022/09/29 05:39:53;;;;;;;0.20;0.20;;;;;;;20.70;47.37;94226.38;5041099;28;20472;-64
2022/09/29 05:42:20;;;;;;;0.10;0.10;;;;;;;20.86;46.96;94229.88;5031445;28;20509;-62
2022/09/29 05:44:47;;;;;;;0.57;0.47;;;;;;;20.37;47.33;94238.22;5036183;28;20474;-63
2022/09/29 05:47:14;;;;;;;0.20;0.20;;;;;;;20.97;46.55;94236.31;5041689;28;20981;-64
2022/09/29 05:49:41;;;;;;;0.30;0.30;;;;;;;20.80;47.35;94236.53;5036146;28;20464;-62
2022/09/29 05:52:07;;;;;;;0.97;0.93;;;;;;;21.12;46.79;94243.66;5034663;28;20447;-64
2022/09/29 05:54:34;;;;;;;0.50;0.50;;;;;;;21.28;46.46;94251.69;5049273;28;20438;-64
2022/09/29 05:57:01;;;;;;;0.53;0.47;;;;;;;21.15;45.97;94258.16;5045782;28;20444;-61
2022/09/29 05:59:28;;;;;;;0.53;0.53;;;;;;;20.96;46.72;94261.41;5028922;28;21072;-64
2022/09/29 06:01:55;;;;;;;0.60;0.60;;;;;;;21.14;45.85;94268.06;5042454;28;20488;-62
2022/09/29 06:04:22;;;;;;;0.30;0.30;;;;;;;21.04;45.40;94257.84;5036589;28;21012;-62
2022/09/29 06:06:49;;;;;;;0.37;0.27;;;;;;;21.59;45.08;94251.03;5048810;28;20451;-65
2022/09/29 06:09:17;;;;;;;0.27;0.27;;;;;;;21.46;45.52;94246.88;5042714;28;21009;-63
2022/09/29 06:11:43;;;;;;;3.07;2.23;;;;;;;21.80;45.36;94268.44;5041441;28;20813;-63
2022/09/29 06:14:10;;;;;;;0.50;0.50;;;;;;;21.17;46.81;94278.03;5029963;28;20602;-63
2022/09/29 06:16:37;;;;;;;0.20;0.20;;;;;;;21.37;45.29;94286.22;5043835;28;20443;-64
2022/09/29 06:19:04;;;;;;;2.73;1.77;;;;;;;21.68;44.90;94286.31;5049779;28;20428;-61
2022/09/29 06:21:34;;;;;;;0.33;0.33;;;;;;;21.94;44.98;94268.81;5042682;28;20529;-61
2022/09/29 06:24:01;;;;;;;0.80;0.80;;;;;;;21.74;46.45;94271.66;5052604;28;20465;-62
2022/09/29 06:26:28;;;;;;;0.20;0.20;;;;;;;21.55;46.99;94276.84;5053165;28;20443;-62
2022/09/29 06:28:56;;;;;;;0.73;0.30;;;;;;;21.83;47.02;94272.31;5038369;28;20514;-64
2022/09/29 06:31:26;;;;;;;0.50;0.50;;;;;;;22.00;46.64;94272.00;5038844;28;20442;-64
2022/09/29 06:33:56;;;;;;;1.13;1.03;;;;;;;22.40;45.74;94272.66;5052928;28;20454;-62
2022/09/29 06:39:18;;;;;;;0.60;0.60;;;;;;;21.97;45.63;94283.34;5050589;28;20546;-64
2022/09/29 06:41:53;;;;;;;1.07;1.07;;;;;;;22.28;45.90;94282.66;5032925;28;20501;-63
2022/09/29 06:44:25;;;;;;;20.57;0.93;;;;;;;22.90;44.72;94288.78;5032254;28;20473;-65
2022/09/29 06:46:53;;;;;;;0.50;0.50;;;;;;;21.98;46.27;94284.91;5032091;28;20859;-62
2022/09/29 06:49:21;;;;;;;0.43;0.43;;;;;;;22.32;46.08;94276.25;5046098;28;20431;-64
2022/09/29 06:51:49;;;;;;;0.53;0.37;;;;;;;22.28;46.26;94282.66;5032786;28;20228;-61
2022/09/29 06:54:20;;;;;;;1.00;1.00;;;;;;;22.51;44.89;94265.69;5041625;28;20212;-63
2022/09/29 06:56:49;;;;;;;1.80;1.70;;;;;;;22.81;44.46;94285.50;5052304;28;20207;-63
2022/09/29 06:59:16;;;;;;;2.13;1.90;;;;;;;22.84;44.23;94292.06;5044492;28;20614;-64
2022/09/29 07:01:49;;;;;;;4.13;1.73;;;;;;;22.56;44.79;94284.16;5045884;28;20228;-64
2022/09/29 07:04:19;;;;;;;1.57;1.23;;;;;;;22.91;44.18;94301.03;5051985;28;20204;-61
2022/09/29 07:06:47;;;;;;;2.07;1.90;;;;;;;22.98;44.18;94290.50;5051825;28;20440;-65
2022/09/29 07:09:15;;;;;;;0.77;0.77;;;;;;;22.98;44.31;94295.06;5051686;28;20438;-63
2022/09/29 07:11:46;;;;;;;0.33;0.33;;;;;;;22.95;44.11;94307.22;5039828;28;20926;-62
2022/09/29 07:14:14;;;;;;;5.50;1.23;;;;;;;23.37;42.92;94317.34;5031693;28;20219;-61
2022/09/29 07:16:42;;;;;;;0.27;0.27;;;;;;;22.92;44.23;94304.44;5042926;28;20810;-65
2022/09/29 07:19:09;;;;;;;1.20;1.20;;;;;;;22.52;46.00;94298.50;5037904;28;20201;-62
2022/09/29 07:21:36;;;;;;;0.47;0.47;;;;;;;23.12;44.27;94298.81;5041934;28;21053;-62
2022/09/29 07:24:03;;;;;;;0.70;0.67;;;;;;;23.20;44.77;94296.31;5048076;28;20478;-66
2022/09/29 07:26:30;;;;;;;0.30;0.30;;;;;;;23.42;43.38;94287.66;5051269;28;20215;-64
2022/09/29 07:28:57;;;;;;;0.37;0.37;;;;;;;23.39;43.65;94288.38;5051307;28;20624;-64
2022/09/29 07:31:24;;;;;;;0.67;0.67;;;;;;;23.55;44.04;94281.84;5051847;28;20510;-63
2022/09/29 07:33:51;;;;;;;0.30;0.30;;;;;;;22.93;45.06;94282.75;5039136;28;20197;-62
2022/09/29 07:36:19;;;;;;;1.50;1.40;;;;;;;23.51;43.49;94290.91;5045800;28;20225;-62
2022/09/29 07:38:49;;;;;;;1.03;1.03;;;;;;;23.61;44.15;94285.00;5031374;28;20197;-62
2022/09/29 07:41:19;;;;;;;2.37;1.93;;;;;;;23.83;43.36;94298.44;5039820;28;20292;-64
2022/09/29 07:43:46;;;;;;;0.97;0.70;;;;;;;23.61;43.92;94298.38;5047158;28;20255;-62
2022/09/29 07:46:13;;;;;;;0.70;0.67;;;;;;;23.08;45.55;94303.31;5051281;28;20193;-64
2022/09/29 07:48:41;;;;;;;0.23;0.23;;;;;;;23.26;44.85;94305.63;5051231;28;20228;-65
2022/09/29 07:51:13;;;;;;;1.00;0.90;;;;;;;23.91;42.71;94292.13;5040284;28;20320;-63
2022/09/29 07:53:40;;;;;;;0.20;0.20;;;;;;;23.62;43.16;94292.69;5044929;28;20224;-65
2022/09/29 07:56:17;;;;;;;0.83;0.57;;;;;;;24.03;42.41;94296.59;5041339;28;20201;-65
2022/09/29 07:58:46;;;;;;;0.20;0.20;;;;;;;24.38;42.40;94301.81;5047001;28;20679;-62
2022/09/29 08:01:14;;;;;;;0.83;0.83;;;;;;;24.54;42.31;94295.19;5041437;28;20220;-65
2022/09/29 08:03:46;;;;;;;0.40;0.40;;;;;;;24.08;43.42;94312.34;5050947;28;20327;-64
2022/09/29 08:06:13;;;;;;;0.30;0.30;;;;;;;23.85;43.25;94316.81;5051022;28;20652;-65
2022/09/29 08:08:41;;;;;;;0.17;0.17;;;;;;;23.63;43.93;94310.25;5049506;28;20227;-61
2022/09/29 08:11:23;;;;;;;0.37;0.37;;;;;;;24.38;41.90;94291.84;5040899;28;20216;-61
2022/09/29 08:13:57;;;;;;;1.03;0.60;;;;;;;24.84;40.02;94308.72;5047955;28;20201;-62
2022/09/29 08:16:24;;;;;;;0.30;0.30;;;;;;;24.64;40.88;94320.63;5039818;28;20192;-62
2022/09/29 08:18:51;;;;;;;0.20;0.20;;;;;;;24.59;42.08;94328.94;5036728;28;20197;-62
2022/09/29 08:21:18;;;;;;;0.50;0.50;;;;;;;24.16;43.49;94316.69;5050962;28;20196;-63
2022/09/29 08:23:45;;;;;;;0.20;0.20;;;;;;;24.25;43.13;94329.88;5050609;28;20300;-62
2022/09/29 08:26:15;;;;;;;0.10;0.10;;;;;;;24.92;41.57;94326.47;5044638;28;20197;-61
2022/09/29 08:28:42;;;;;;;1.03;1.00;;;;;;;25.29;39.50;94307.91;5042571;28;20620;-64
2022/09/29 08:31:19;;;;;;;0.20;0.20;;;;;;;25.04;38.31;94318.25;5050061;28;20699;-63
2022/09/29 08:33:48;;;;;;;0.30;0.30;;;;;;;24.84;39.67;94330.94;5050592;28;20208;-64
2022/09/29 08:36:16;;;;;;;0.03;0.03;;;;;;;25.32;39.30;94336.66;5036077;28;20197;-61
2022/09/29 08:38:47;;;;;;;0.37;0.37;;;;;;;25.50;37.91;94329.66;5037900;28;20209;-64
2022/09/29 08:41:35;;;;;;;0.47;0.47;;;;;;;25.99;37.83;94323.03;5038348;28;20996;-61
2022/09/29 08:44:27;;;;;;;0.40;0.40;;;;;;;26.08;37.62;94314.72;5029591;28;20671;-62
2022/09/29 08:47:19;;;;;;;1.53;1.00;;;;;;;26.29;38.29;94323.03;5031143;28;20695;-63
2022/09/29 08:49:54;;;;;;;0.20;0.20;;;;;;;26.07;36.13;94323.94;5050306;28;20242;-62
2022/09/29 08:52:25;;;;;;;0.20;0.20;;;;;;;25.74;38.36;94318.50;5037359;28;20198;-64
2022/09/29 08:54:58;;;;;;;0.30;0.30;;;;;;;26.12;37.59;94323.59;5050137;28;20256;-63
2022/09/29 08:57:29;;;;;;;2.10;1.57;;;;;;;25.97;38.50;94311.09;5043231;28;20622;-63
2022/09/29 08:59:58;;;;;;;2.37;1.90;;;;;;;26.77;37.33;94303.16;5043499;28;20220;-62
2022/09/29 09:02:53;;;;;;;0.20;0.20;;;;;;;26.88;36.10;94319.38;5035660;28;20228;-64
2022/09/29 09:05:44;;;;;;;0.27;0.27;;;;;;;26.43;37.57;94317.00;5049895;28;20295;-63
2022/09/29 09:08:40;;;;;;;2.93;2.03;;;;;;;26.75;37.27;94316.19;5049622;28;20203;-64
2022/09/29 09:11:40;;;;;;;0.40;0.40;;;;;;;26.70;37.24;94316.53;5030080;28;20204;-62
2022/09/29 09:14:25;;;;;;;0.67;0.37;;;;;;;27.14;36.63;94307.66;5047885;28;20984;-64
2022/09/29 09:17:30;;;;;;;1.00;0.73;;;;;;;27.92;36.21;94298.91;5049704;28;20239;-63
2022/09/29 09:20:12;;;;;;;0.83;0.83;;;;;;;27.26;36.05;94304.69;5040352;28;20215;-63
2022/09/29 09:22:54;;;;;;;0.30;0.30;;;;;;;27.87;34.90;94301.97;5035144;28;20978;-62
2022/09/29 09:25:30;;;;;;;0.53;0.50;;;;;;;27.95;34.19;94306.28;5049450;28;20196;-61
2022/09/29 09:28:20;;;;;;;0.50;0.43;;;;;;;28.61;33.59;94307.66;5048914;28;20218;-63
2022/09/29 09:30:54;;;;;;;0.23;0.23;;;;;;;28.50;31.15;94310.28;5049243;28;20196;-65
2022/09/29 09:33:41;;;;;;;0.10;0.10;;;;;;;28.40;33.03;94312.94;5049765;28;20224;-61
2022/09/29 09:36:15;;;;;;;0.40;0.40;;;;;;;28.95;32.45;94303.44;5049266;28;20703;-65
2022/09/29 09:39:09;;;;;;;0.13;0.13;;;;;;;28.73;31.25;94294.56;5049433;28;20269;-64
2022/09/29 09:41:39;;;;;;;0.30;0.30;;;;;;;29.17;31.33;94290.72;5029323;28;20209;-62
2022/09/29 09:44:17;;;;;;;0.30;0.30;;;;;;;28.87;32.31;94289.16;5047589;28;20274;-64
2022/09/29 09:47:04;;;;;;;0.30;0.23;;;;;;;29.31;31.86;94294.19;5049076;28;20254;-62
2022/09/29 09:49:39;;;;;;;0.50;0.40;;;;;;;29.34;31.11;94300.75;5047814;28;20287;-64
2022/09/29 09:52:39;;;;;;;0.10;0.10;;;;;;;29.16;30.40;94300.00;5035069;28;20652;-69
2022/09/29 09:55:26;;;;;;;0.50;0.50;;;;;;;29.41;30.43;94300.72;5035355;28;20205;-65
2022/09/29 09:58:51;;;;;;;0.27;0.27;;;;;;;28.99;30.97;94301.50;5038624;28;20197;-65
2022/09/29 10:01:18;;;;;;;0.23;0.23;;;;;;;29.31;28.97;94296.09;5043771;28;20226;-66
2022/09/29 10:03:45;;;;;;;0.30;0.30;;;;;;;29.20;29.77;94306.13;5045915;28;20785;-65
2022/09/29 10:06:12;;;;;;;0.57;0.57;;;;;;;28.50;31.82;94307.56;5038036;28;20200;-64
2022/09/29 10:08:41;;;;;;;0.10;0.10;;;;;;;28.56;30.31;94310.69;5034652;28;20189;-63
2022/09/29 10:11:24;;;;;;;0.43;0.43;;;;;;;29.18;30.46;94303.06;5041639;28;20201;-63
2022/09/29 10:13:58;;;;;;;0.30;0.30;;;;;;;29.35;29.00;94297.66;5045253;28;20200;-63
2022/09/29 10:16:31;;;;;;;0.10;0.10;;;;;;;28.81;29.66;94304.19;5040014;28;20607;-63
2022/09/29 10:18:58;;;;;;;0.20;0.20;;;;;;;29.34;29.54;94292.66;5043034;28;20200;-63
2022/09/29 10:21:25;;;;;;;0.20;0.20;;;;;;;28.67;30.49;94301.47;5029449;28;20196;-64
2022/09/29 10:23:53;;;;;;;0.10;0.10;;;;;;;29.20;29.88;94289.94;5043801;28;20226;-62
2022/09/29 10:26:57;;;;;;;0.30;0.30;;;;;;;29.56;28.88;94286.03;5049346;28;20193;-63
2022/09/29 10:29:30;;;;;;;0.30;0.30;;;;;;;29.78;29.29;94298.34;5044250;28;20268;-63
2022/09/29 10:32:37;;;;;;;0.50;0.50;;;;;;;29.79;28.53;94292.56;5029038;28;20756;-65
2022/09/29 10:35:14;;;;;;;23.77;2.13;;;;;;;29.54;28.88;94297.22;5029241;28;20559;-64
2022/09/29 10:37:46;;;;;;;3.33;0.97;;;;;;;29.68;28.61;94288.31;5044898;28;20218;-65
2022/09/29 10:40:17;;;;;;;0.13;0.13;;;;;;;28.74;27.60;94306.13;5039499;28;20256;-64
2022/09/29 10:42:47;;;;;;;0.30;0.30;;;;;;;29.32;29.55;94297.66;5036040;28;20639;-64
2022/09/29 10:45:22;;;;;;;0.17;0.17;;;;;;;29.58;26.61;94294.53;5048368;28;20699;-67
2022/09/29 10:48:03;;;;;;;0.20;0.20;;;;;;;30.13;26.45;94303.59;5036053;28;20185;-62
2022/09/29 10:50:33;;;;;;;0.13;0.13;;;;;;;30.21;26.36;94288.91;5033057;28;20201;-65
2022/09/29 10:53:22;;;;;;;0.77;0.70;;;;;;;30.08;29.43;94289.72;5041331;28;20664;-64
2022/09/29 10:55:53;;;;;;;6.27;1.07;;;;;;;30.73;28.79;94282.44;5036464;28;20207;-64
2022/09/29 10:58:30;;;;;;;0.10;0.10;;;;;;;30.37;27.59;94283.03;5047855;28;20228;-64
2022/09/29 11:01:16;;;;;;;0.40;0.40;;;;;;;30.67;27.78;94278.63;5027320;28;20587;-64
2022/09/29 11:04:00;;;;;;;0.30;0.30;;;;;;;30.11;29.01;94284.31;5045815;28;20792;-63
2022/09/29 11:06:29;;;;;;;0.20;0.20;;;;;;;30.36;25.74;94285.00;5032182;28;20291;-64
2022/09/29 11:09:04;;;;;;;0.27;0.27;;;;;;;29.76;26.83;94273.66;5049047;28;20658;-62
2022/09/29 11:11:32;;;;;;;0.57;0.57;;;;;;;29.36;28.38;94272.19;5041698;28;20205;-64
2022/09/29 11:13:59;;;;;;;1.60;1.27;;;;;;;29.82;26.07;94272.09;5049641;28;20272;-63
2022/09/29 11:16:36;;;;;;;0.30;0.30;;;;;;;29.64;26.14;94274.03;5042695;28;20232;-65
2022/09/29 11:19:07;;;;;;;0.30;0.30;;;;;;;29.42;27.02;94276.03;5051546;28;20207;-63
2022/09/29 11:21:59;;;;;;;0.37;0.37;;;;;;;29.21;27.25;94275.31;5051795;28;20193;-64
2022/09/29 11:24:59;;;;;;;0.30;0.30;;;;;;;28.91;27.43;94273.75;5032029;28;20229;-61
2022/09/29 11:27:29;;;;;;;0.50;0.47;;;;;;;29.40;27.88;94267.56;5047817;28;20601;-65
2022/09/29 11:30:14;;;;;;;0.10;0.10;;;;;;;29.10;27.46;94266.44;5043138;28;20533;-63
2022/09/29 11:32:48;;;;;;;0.43;0.43;;;;;;;29.34;27.26;94262.97;5048915;28;20200;-64
2022/09/29 11:35:46;;;;;;;0.37;0.30;;;;;;;29.56;27.38;94259.78;5041385;28;20203;-63
2022/09/29 11:38:39;;;;;;;0.57;0.57;;;;;;;29.49;27.08;94259.06;5037916;28;20531;-62
2022/09/29 11:41:18;;;;;;;0.40;0.40;;;;;;;29.30;28.72;94262.19;5035312;28;20200;-63
2022/09/29 11:43:54;;;;;;;0.33;0.33;;;;;;;29.40;28.91;94266.78;5045193;28;20399;-64
2022/09/29 11:46:51;;;;;;;0.60;0.60;;;;;;;29.43;30.37;94256.00;5040721;28;20188;-63
2022/09/29 11:49:39;;;;;;;0.70;0.70;;;;;;;29.28;29.80;94259.09;5031556;28;20197;-64
2022/09/29 11:52:06;;;;;;;0.40;0.40;;;;;;;28.44;28.74;94266.00;5035971;28;20236;-65
2022/09/29 11:54:32;;;;;;;0.37;0.37;;;;;;;28.89;29.21;94267.19;5040174;28;20744;-64
2022/09/29 11:57:36;;;;;;;0.17;0.17;;;;;;;29.11;28.75;94262.56;5048194;28;20287;-64
2022/09/29 12:00:18;;;;;;;0.20;0.20;;;;;;;29.09;28.42;94262.19;5051127;28;20552;-63
2022/09/29 12:03:07;;;;;;;0.27;0.27;;;;;;;29.08;29.09;94260.66;5042284;28;20292;-63
2022/09/29 12:05:52;;;;;;;0.20;0.20;;;;;;;29.41;28.96;94266.41;5044923;28;20196;-64